Latest Weather Observations for Mount William

IDV60801

Issued at 5:02 pm EST Thursday 3 September 2015 (issued every 30 minutes, with the page automatically refreshed every 10 minutes)

About weather observations | Map of weather stations | Latest weather observations for VIC | Other Formats
Station Details ID: 079103 Name: MOUNT WILLIAM Lat: -37.30 Lon: 142.60 Height: 1150.0 m
Data from the previous 72 hours. | See also: Recent months at Mount William
Date/Time
EST
Temp
°C
App
Temp
°C
Dew
Point
Rel
Hum
%
Delta-T
°C
Wind Press
QNH
hPa
Press
MSL
hPa
Rain
since 9 am
mm
Dir
 
Spd
km/h
Gust
km/h
Spd
kts
Gust
kts
03/05:00pm 3.6 -2.0 3.5 99 0.0 SW 22 39 12 21 - - 3.8
03/04:30pm 3.8 -2.5 3.7 99 0.0 SW 26 44 14 24 - - 3.2
03/04:14pm 3.6 -3.1 3.5 99 0.0 SSW 28 50 15 27 - - 3.0
03/04:00pm 4.0 -1.5 3.9 99 0.0 SW 22 35 12 19 - - 2.8
03/03:30pm 4.3 -1.5 4.2 99 0.0 SSW 24 35 13 19 - - 2.2
03/03:00pm 4.6 -0.2 4.5 99 0.0 SSW 19 33 10 18 - - 1.8
03/02:30pm 4.7 -1.8 4.6 99 0.0 SSW 28 44 15 24 - - 1.8
03/02:24pm 4.8 -1.7 4.7 99 0.0 SSW 28 44 15 24 - - 1.8
03/02:00pm 4.7 -0.7 4.6 99 0.0 SW 22 44 12 24 - - 1.8
03/01:30pm 4.9 0.1 4.8 99 0.0 SSW 19 33 10 18 - - 1.6
03/01:00pm 4.9 -1.2 4.8 99 0.0 SSW 26 46 14 25 - - 1.4
03/12:31pm 4.8 -1.7 4.7 99 0.0 SSW 28 48 15 26 - - 1.4
03/12:30pm 4.9 -1.2 4.8 99 0.0 SSW 26 48 14 26 - - 1.2
03/12:22pm 4.9 -1.6 4.8 99 0.0 SW 28 50 15 27 - - 1.2
03/12:00pm 4.7 -0.7 4.6 99 0.0 SW 22 37 12 20 - - 1.0
03/11:30am 4.7 -0.3 4.6 99 0.0 SSW 20 43 11 23 - - 1.0
03/11:00am 4.5 -2.4 4.4 99 0.0 S 30 46 16 25 - - 0.2
03/10:45am 4.6 -1.9 4.5 99 0.0 S 28 46 15 25 - - 0.2
03/10:30am 4.6 -2.7 4.5 99 0.0 S 32 44 17 24 - - 0.2
03/10:00am 4.3 -4.8 4.2 99 0.0 S 41 56 22 30 - - 0.2
03/09:41am 4.0 -5.5 3.9 99 0.0 S 43 61 23 33 - - 0.2
03/09:30am 4.0 -6.5 3.9 99 0.0 S 48 65 26 35 - - 0.2
03/09:00am 4.3 -5.1 4.2 99 0.0 S 43 59 23 32 - - 18.4
03/08:45am 4.4 -5.2 4.3 99 0.0 S 44 63 24 34 - - 18.4
03/08:30am 4.4 -6.4 4.3 99 0.0 S 50 67 27 36 - - 18.4
03/08:14am 4.2 -6.6 4.1 99 0.0 S 50 69 27 37 - - 18.4
03/08:00am 4.1 -6.3 4.0 99 0.0 S 48 65 26 35 - - 18.4
03/07:30am 4.0 -6.1 3.9 99 0.0 S 46 59 25 32 - - 18.4
03/07:00am 4.0 -5.7 3.9 99 0.0 S 44 59 24 32 - - 18.4
03/06:30am 4.0 -4.7 3.9 99 0.0 S 39 48 21 26 - - 18.4
03/06:00am 4.0 -3.4 3.9 99 0.0 S 32 41 17 22 - - 18.2
03/05:30am 4.1 -4.2 4.0 99 0.0 S 37 50 20 27 - - 18.2
03/05:00am 4.0 -5.1 3.9 99 0.0 S 41 48 22 26 - - 18.2
03/04:30am 4.0 -4.0 3.9 99 0.0 S 35 46 19 25 - - 18.2
03/04:00am 4.0 -3.0 3.9 99 0.0 S 30 44 16 24 - - 18.0
03/03:30am 4.0 -1.9 3.9 99 0.0 SSW 24 37 13 20 - - 18.0
03/03:00am 4.0 -2.7 3.9 99 0.0 S 28 43 15 23 - - 17.8
03/02:30am 4.1 -2.9 4.0 99 0.0 S 30 43 16 23 - - 17.8
03/02:00am 4.1 -2.2 4.0 99 0.0 SSW 26 39 14 21 - - 17.8
03/01:30am 3.8 -2.9 3.7 99 0.0 SSW 28 35 15 19 - - 17.8
03/01:00am 3.7 -1.3 3.6 99 0.0 S 19 24 10 13 - - 17.8
03/12:30am 3.8 0.0 3.7 99 0.0 S 13 15 7 8 - - 17.8
03/12:00am 3.8 0.0 3.7 99 0.0 E 13 15 7 8 - - 17.8
 
Date/Time
EST
Temp
°C
App
Temp
°C
Dew
Point
Rel
Hum
%
Delta-T
°C
Wind Press
QNH
hPa
Press
MSL
hPa
Rain
since 9 am
mm
Dir
 
Spd
km/h
Gust
km/h
Spd
kts
Gust
kts
02/11:30pm 3.9 0.5 3.8 99 0.0 E 11 15 6 8 - - 17.6
02/11:00pm 3.9 0.8 3.8 99 0.0 E 9 11 5 6 - - 17.6
02/10:30pm 4.0 1.0 3.9 99 0.0 ENE 9 13 5 7 - - 17.4
02/10:00pm 4.0 1.0 3.9 99 0.0 NE 9 13 5 7 - - 17.0
02/09:30pm 4.0 -0.2 3.9 99 0.0 NE 15 19 8 10 - - 16.4
02/09:00pm 4.0 -0.9 3.9 99 0.0 NE 19 26 10 14 - - 15.2
02/08:30pm 4.1 -0.4 4.0 99 0.0 NE 17 28 9 15 - - 14.6
02/08:00pm 4.0 -1.5 3.9 99 0.0 NE 22 32 12 17 - - 14.2
02/07:30pm 4.1 -2.2 4.0 99 0.0 NE 26 39 14 21 - - 13.2
02/07:00pm 4.0 -2.3 3.9 99 0.0 NE 26 39 14 21 - - 12.0
02/06:30pm 3.9 -2.4 3.8 99 0.0 NE 26 35 14 19 - - 9.4
02/06:00pm 3.9 -4.1 3.8 99 0.0 NNE 35 46 19 25 - - 8.6
02/05:30pm 4.0 -4.0 3.9 99 0.0 NE 35 46 19 25 - - 8.2
02/05:00pm 3.6 -6.0 3.5 99 0.0 NE 43 54 23 29 - - 8.2
02/04:30pm 3.5 -4.6 3.4 99 0.0 NE 35 46 19 25 - - 8.0
02/04:00pm 3.4 -5.5 3.3 99 0.0 NE 39 48 21 26 - - 7.8
02/03:39pm 3.2 -4.0 3.1 99 0.0 NNE 30 46 16 25 - - 6.4
02/03:30pm 2.5 -2.7 2.4 99 0.0 N 19 30 10 16 - - 5.4
02/03:00pm 3.1 -3.3 3.0 99 0.0 N 26 43 14 23 - - 4.0
02/02:43pm 3.2 -3.6 3.1 99 0.0 N 28 48 15 26 - - 3.6
02/02:30pm 3.3 -3.1 3.2 99 0.0 N 26 43 14 23 - - 2.8
02/02:02pm 3.0 -5.2 2.9 99 0.0 NNE 35 56 19 30 - - 1.6
02/02:00pm 3.0 -5.2 2.9 99 0.0 NNE 35 54 19 29 - - 1.6
02/01:36pm 3.1 -5.0 3.0 99 0.0 NNE 35 54 19 29 - - 0.6
02/01:30pm 3.1 -5.4 3.0 99 0.0 NNE 37 54 20 29 - - 0.6
02/01:00pm 3.0 -5.2 2.9 99 0.0 NNE 35 50 19 27 - - 0.6
02/12:39pm 3.5 -6.1 3.4 99 0.0 NNE 43 63 23 34 - - 0.4
02/12:30pm 3.5 -6.1 3.4 99 0.0 NNE 43 54 23 29 - - 0.4
02/12:00pm 3.6 -8.1 3.5 99 0.0 NNE 54 65 29 35 - - 0.4
02/11:30am 3.6 -9.0 3.5 99 0.0 NNE 59 72 32 39 - - 0.4
02/11:12am 3.6 -7.7 3.5 99 0.0 NNE 52 70 28 38 - - 0.4
02/11:00am 3.6 -7.7 3.5 99 0.0 NNE 52 70 28 38 - - 0.2
02/10:30am 3.1 -5.8 3.0 99 0.0 NNE 39 54 21 29 - - 0.0
02/10:00am 2.9 -6.1 2.5 97 0.2 N 39 59 21 32 - - 0.0
02/09:30am 3.9 -5.2 2.1 88 0.8 NNE 39 65 21 35 - - 0.0
02/09:00am 3.5 -5.2 1.9 89 0.7 NNE 37 57 20 31 - - 0.2
02/08:31am 3.3 -5.5 1.5 88 0.8 NNE 37 57 20 31 - - 0.2
02/08:30am 3.3 -5.9 1.5 88 0.8 NNE 39 57 21 31 - - 0.2
02/08:00am 3.5 -5.3 1.2 85 1.0 NNE 37 57 20 31 - - 0.2
02/07:30am 3.3 -6.0 0.9 84 1.0 NNE 39 63 21 34 - - 0.2
02/07:00am 3.3 -6.0 0.7 83 1.1 N 39 59 21 32 - - 0.2
02/06:30am 3.5 -5.8 0.7 82 1.2 N 39 61 21 33 - - 0.2
02/06:00am 4.2 -5.5 0.5 77 1.5 N 41 65 22 35 - - 0.2
02/05:30am 4.0 -4.9 0.5 78 1.4 N 37 61 20 33 - - 0.2
02/05:00am 4.7 -6.0 0.3 73 1.8 N 46 67 25 36 - - 0.2
02/04:30am 5.1 -5.7 -0.3 68 2.2 N 46 65 25 35 - - 0.2
02/04:02am 4.5 -5.2 0.3 74 1.7 N 41 61 22 33 - - 0.2
02/04:00am 4.3 -5.4 0.5 76 1.6 N 41 57 22 31 - - 0.2
02/03:33am 4.6 -5.1 0.2 73 1.8 N 41 63 22 34 - - 0.2
02/03:30am 4.6 -5.1 0.2 73 1.8 N 41 57 22 31 - - 0.2
02/03:00am 4.8 -4.2 0.0 71 2.0 N 37 57 20 31 - - 0.2
02/02:37am 4.4 -4.9 0.6 76 1.6 N 39 57 21 31 - - 0.2
02/02:30am 4.5 -4.4 0.5 75 1.7 N 37 56 20 30 - - 0.2
02/02:03am 4.7 -4.2 0.8 76 1.6 N 37 56 20 30 - - 0.2
02/02:00am 4.7 -4.6 0.7 75 1.7 N 39 56 21 30 - - 0.2
02/01:33am 4.6 -3.9 0.9 77 1.5 N 35 56 19 30 - - 0.2
02/01:30am 4.6 -4.3 0.9 77 1.5 N 37 54 20 29 - - 0.2
02/01:02am 4.6 -3.3 1.1 78 1.5 N 32 50 17 27 - - 0.2
02/01:00am 4.5 -3.6 1.2 79 1.4 N 33 50 18 27 - - 0.2
02/12:31am 4.7 -4.5 1.4 79 1.4 NNE 39 57 21 31 - - 0.2
02/12:30am 4.7 -4.1 1.6 80 1.3 NNE 37 50 20 27 - - 0.2
02/12:00am 5.0 -3.4 1.5 78 1.5 NNE 35 57 19 31 - - 0.2
 
Date/Time
EST
Temp
°C
App
Temp
°C
Dew
Point
Rel
Hum
%
Delta-T
°C
Wind Press
QNH
hPa
Press
MSL
hPa
Rain
since 9 am
mm
Dir
 
Spd
km/h
Gust
km/h
Spd
kts
Gust
kts
01/11:30pm 5.3 -3.8 1.6 77 1.6 NNE 39 65 21 35 - - 0.2
01/11:00pm 5.1 -4.0 1.6 78 1.5 NNE 39 65 21 35 - - 0.2
01/10:46pm 5.2 -3.2 1.7 78 1.5 N 35 56 19 30 - - 0.2
01/10:30pm 5.3 -3.1 1.6 77 1.6 NNE 35 50 19 27 - - 0.2
01/10:00pm 6.0 -2.4 1.3 72 2.0 NNE 35 48 19 26 - - 0.2
01/09:30pm 6.1 -2.3 1.4 72 2.0 NNE 35 50 19 27 - - 0.2
01/09:02pm 6.6 -1.5 0.7 66 2.5 NNE 33 52 18 28 - - 0.2
01/09:00pm 6.6 -1.5 0.9 67 2.4 NNE 33 46 18 25 - - 0.2
01/08:30pm 6.7 -0.9 0.8 66 2.5 NNE 30 41 16 22 - - 0.2
01/08:00pm 6.7 -0.5 1.0 67 2.4 NNE 28 35 15 19 - - 0.2
01/07:30pm 6.8 0.0 1.1 67 2.5 NNE 26 37 14 20 - - 0.2
01/07:00pm 6.5 -0.1 1.8 72 2.0 NNE 26 32 14 17 - - 0.2
01/06:30pm 6.4 0.9 1.9 73 2.0 NNE 20 26 11 14 - - 0.2
01/06:00pm 6.5 1.0 1.6 71 2.1 N 20 30 11 16 - - 0.2
01/05:30pm 6.8 1.3 1.9 71 2.1 N 20 26 11 14 - - 0.2
01/05:00pm 6.6 1.1 1.9 72 2.1 N 20 26 11 14 - - 0.2
01/04:30pm 6.9 2.1 2.6 74 1.9 N 17 22 9 12 - - 0.2
01/04:00pm 8.9 4.7 3.9 71 2.3 N 15 22 8 12 - - 0.2
01/03:30pm 8.9 4.7 3.9 71 2.3 NNW 15 22 8 12 - - 0.2
01/03:00pm 8.8 4.6 3.8 71 2.3 NNW 15 20 8 11 - - 0.2
01/02:30pm 7.6 3.5 2.3 69 2.4 NW 13 20 7 11 - - 0.0
01/02:00pm 9.4 5.6 3.8 68 2.6 NW 13 22 7 12 - - 0.0
01/01:30pm 8.1 4.2 3.6 73 2.1 WNW 13 22 7 12 - - 0.0
01/01:00pm 7.0 2.6 2.9 75 1.8 W 15 20 8 11 - - 0.0
01/12:30pm 7.2 2.9 3.1 75 1.9 WNW 15 26 8 14 - - 0.0
01/12:00pm 6.7 2.7 2.8 76 1.7 W 13 19 7 10 - - 0.0
01/11:30am 6.7 1.4 2.0 72 2.1 W 19 28 10 15 - - 0.0
01/11:00am 6.3 0.7 1.2 70 2.2 WSW 20 28 11 15 - - 0.0
01/10:30am 4.8 -0.9 0.8 75 1.7 W 20 24 11 13 - - 0.0
01/10:00am 3.8 -2.4 0.0 76 1.5 W 22 30 12 16 - - 0.0
01/09:30am 3.1 -3.9 -0.4 78 1.4 W 26 32 14 17 - - 0.0
01/09:00am 2.8 -3.7 0.2 83 1.0 W 24 28 13 15 - - 0.0
01/08:30am 2.5 -3.6 0.6 87 0.8 W 22 26 12 14 - - 0.0
01/08:00am 2.1 -4.4 0.2 87 0.8 WSW 24 28 13 15 - - 0.0
01/07:30am 2.3 -4.6 -2.4 71 1.8 WSW 24 28 13 15 - - 0.0
01/07:00am 2.0 -4.8 -2.0 75 1.5 W 24 28 13 15 - - 0.0
01/06:30am 3.6 -2.4 -11.1 33 4.7 W 15 20 8 11 - - 0.0
01/06:00am 4.1 -2.6 -10.7 33 4.8 WSW 19 22 10 12 - - 0.0
01/05:30am 2.8 -2.9 -7.1 48 3.5 W 15 20 8 11 - - 0.0
01/05:00am 2.0 -2.0 -2.1 74 1.5 WSW 9 11 5 6 - - 0.0
01/04:30am 2.7 -1.1 -5.9 53 3.1 W 6 7 3 4 - - 0.0
01/04:00am 2.4 -2.3 -5.2 57 2.8 W 11 13 6 7 - - 0.0
01/03:30am 2.3 -3.5 -4.9 59 2.7 WSW 17 17 9 9 - - 0.0
01/03:00am 2.0 -3.9 -2.5 72 1.7 W 19 20 10 11 - - 0.0
01/02:30am 2.2 -4.3 -2.7 70 1.8 WSW 22 28 12 15 - - 0.0
01/02:00am 1.7 -4.7 -1.7 78 1.3 WSW 22 28 12 15 - - 0.0
01/01:30am 1.6 -5.6 0.4 92 0.5 WSW 28 30 15 16 - - 0.0
01/01:00am 1.5 -5.8 0.2 91 0.5 WSW 28 32 15 17 - - 0.0
01/12:30am 1.1 -5.7 1.0 99 0.0 WSW 26 32 14 17 - - 0.0
01/12:00am 1.1 -5.3 1.0 99 0.0 WSW 24 32 13 17 - - 0.0
 
Date/Time
EST
Temp
°C
App
Temp
°C
Dew
Point
Rel
Hum
%
Delta-T
°C
Wind Press
QNH
hPa
Press
MSL
hPa
Rain
since 9 am
mm
Dir
 
Spd
km/h
Gust
km/h
Spd
kts
Gust
kts
31/11:30pm 1.1 -5.7 1.0 99 0.0 W 26 30 14 16 - - 0.0
31/11:00pm 1.4 -4.8 -0.1 90 0.6 W 22 24 12 13 - - 0.0
31/10:30pm 1.0 -4.6 0.9 99 0.0 W 20 22 11 12 - - 0.0
31/10:00pm 0.7 -4.4 0.6 99 0.0 W 17 20 9 11 - - 0.0
31/09:30pm 0.6 -4.2 0.5 99 0.0 WSW 15 17 8 9 - - 0.0
31/09:00pm 0.6 -4.5 0.5 99 0.0 WSW 17 19 9 10 - - 0.0
31/08:30pm 0.5 -3.5 0.4 99 0.0 W 11 15 6 8 - - 0.0
31/08:00pm 0.7 -4.4 0.6 99 0.0 W 17 19 9 10 - - 0.0
31/07:30pm 1.5 -2.8 0.9 96 0.2 W 13 17 7 9 - - 0.0
31/07:00pm 1.4 -3.3 1.1 98 0.1 W 15 19 8 10 - - 0.0
31/06:30pm 0.8 -3.5 0.7 99 0.0 WSW 13 15 7 8 - - 0.0
31/06:00pm 0.8 -3.2 0.5 98 0.1 SSW 11 15 6 8 - - 0.0
31/05:30pm 2.6 -1.7 1.1 90 0.6 WSW 13 15 7 8 - - 0.0

Other Formats:

Comma delimited format used in spreadsheet applications
http://www.bom.gov.au/fwo/IDV60801/IDV60801.94833.axf

JavaScript Object Notation format (JSON) in row-major order
http://www.bom.gov.au/fwo/IDV60801/IDV60801.94833.json